sensor_id;sensor_type;location;lat;lon;timestamp;pressure;altitude;pressure_sealevel;temperature;humidity
71917;BME280;59793;46.506;6.674;2023-07-31T00:00:49;97320.66;;;18.62;56.81
71917;BME280;59793;46.506;6.674;2023-07-31T00:03:15;97351.91;;;18.83;56.96
71917;BME280;59793;46.506;6.674;2023-07-31T00:05:40;97349.56;;;18.89;57.20
71917;BME280;59793;46.506;6.674;2023-07-31T00:08:05;97366.00;;;18.84;57.83
71917;BME280;59793;46.506;6.674;2023-07-31T00:10:31;97330.97;;;18.57;58.72
71917;BME280;59793;46.506;6.674;2023-07-31T00:12:56;97369.78;;;18.83;59.27
71917;BME280;59793;46.506;6.674;2023-07-31T00:15:21;97356.47;;;18.65;58.80
71917;BME280;59793;46.506;6.674;2023-07-31T00:17:47;97334.03;;;18.59;57.94
71917;BME280;59793;46.506;6.674;2023-07-31T00:20:12;97360.31;;;18.60;58.22
71917;BME280;59793;46.506;6.674;2023-07-31T00:22:38;97333.31;;;18.30;59.13
71917;BME280;59793;46.506;6.674;2023-07-31T00:25:03;97381.72;;;18.32;59.59
71917;BME280;59793;46.506;6.674;2023-07-31T00:27:31;97368.78;;;17.91;60.31
71917;BME280;59793;46.506;6.674;2023-07-31T00:29:57;97320.75;;;17.62;60.90
71917;BME280;59793;46.506;6.674;2023-07-31T00:32:22;97371.44;;;17.95;61.29
71917;BME280;59793;46.506;6.674;2023-07-31T00:34:47;97305.91;;;17.51;61.38
71917;BME280;59793;46.506;6.674;2023-07-31T00:37:13;97336.78;;;17.91;60.23
71917;BME280;59793;46.506;6.674;2023-07-31T00:39:38;97275.09;;;17.67;60.85
71917;BME280;59793;46.506;6.674;2023-07-31T00:42:04;97358.09;;;17.98;61.02
71917;BME280;59793;46.506;6.674;2023-07-31T00:44:29;97327.63;;;17.46;61.69
71917;BME280;59793;46.506;6.674;2023-07-31T00:46:55;97365.66;;;17.46;62.13
71917;BME280;59793;46.506;6.674;2023-07-31T00:49:22;97350.41;;;17.29;62.49
71917;BME280;59793;46.506;6.674;2023-07-31T00:51:47;97307.72;;;16.96;62.64
71917;BME280;59793;46.506;6.674;2023-07-31T00:54:13;97316.50;;;17.11;62.58
71917;BME280;59793;46.506;6.674;2023-07-31T00:56:39;97351.63;;;17.63;61.96
71917;BME280;59793;46.506;6.674;2023-07-31T00:59:05;97327.63;;;17.71;61.64
71917;BME280;59793;46.506;6.674;2023-07-31T01:01:31;97314.69;;;17.73;60.62
71917;BME280;59793;46.506;6.674;2023-07-31T01:03:56;97303.66;;;17.63;60.90
71917;BME280;59793;46.506;6.674;2023-07-31T01:12:22;97342.72;;;17.09;63.91
71917;BME280;59793;46.506;6.674;2023-07-31T01:17:29;97309.13;;;16.72;63.87
71917;BME280;59793;46.506;6.674;2023-07-31T01:20:00;97310.63;;;16.66;64.49
71917;BME280;59793;46.506;6.674;2023-07-31T01:28:19;97312.06;;;16.53;64.91
71917;BME280;59793;46.506;6.674;2023-07-31T01:30:47;97331.16;;;16.69;64.95
71917;BME280;59793;46.506;6.674;2023-07-31T01:33:15;97311.66;;;16.44;65.20
71917;BME280;59793;46.506;6.674;2023-07-31T01:35:44;97309.75;;;16.41;65.76
71917;BME280;59793;46.506;6.674;2023-07-31T01:38:09;97303.56;;;16.22;65.83
71917;BME280;59793;46.506;6.674;2023-07-31T01:40:35;97297.53;;;16.29;65.48
71917;BME280;59793;46.506;6.674;2023-07-31T01:43:00;97308.25;;;16.47;65.14
71917;BME280;59793;46.506;6.674;2023-07-31T01:45:26;97301.41;;;16.46;65.15
71917;BME280;59793;46.506;6.674;2023-07-31T01:47:51;97278.66;;;16.59;64.44
71917;BME280;59793;46.506;6.674;2023-07-31T01:50:17;97281.72;;;16.61;64.86
71917;BME280;59793;46.506;6.674;2023-07-31T01:52:42;97280.16;;;16.57;65.02
71917;BME280;59793;46.506;6.674;2023-07-31T01:55:07;97251.94;;;16.31;64.86
71917;BME280;59793;46.506;6.674;2023-07-31T01:57:33;97283.09;;;16.30;65.37
71917;BME280;59793;46.506;6.674;2023-07-31T01:59:58;97285.34;;;16.28;65.51
71917;BME280;59793;46.506;6.674;2023-07-31T02:02:24;97279.22;;;16.17;65.75
71917;BME280;59793;46.506;6.674;2023-07-31T02:04:49;97284.16;;;16.15;65.66
71917;BME280;59793;46.506;6.674;2023-07-31T02:07:15;97242.66;;;15.96;65.47
71917;BME280;59793;46.506;6.674;2023-07-31T02:09:40;97300.25;;;16.40;65.74
71917;BME280;59793;46.506;6.674;2023-07-31T02:12:06;97271.28;;;16.24;65.37
71917;BME280;59793;46.506;6.674;2023-07-31T02:14:33;97264.00;;;16.10;65.78
71917;BME280;59793;46.506;6.674;2023-07-31T02:16:59;97251.72;;;15.88;66.38
71917;BME280;59793;46.506;6.674;2023-07-31T02:19:24;97290.53;;;16.03;66.47
71917;BME280;59793;46.506;6.674;2023-07-31T02:21:49;97277.88;;;15.86;66.78
71917;BME280;59793;46.506;6.674;2023-07-31T02:24:15;97275.19;;;15.82;66.73
71917;BME280;59793;46.506;6.674;2023-07-31T02:26:40;97262.19;;;15.66;66.97
71917;BME280;59793;46.506;6.674;2023-07-31T02:29:07;97275.19;;;15.78;67.24
71917;BME280;59793;46.506;6.674;2023-07-31T02:31:32;97254.94;;;15.63;67.38
71917;BME280;59793;46.506;6.674;2023-07-31T02:33:57;97269.06;;;15.74;67.16
71917;BME280;59793;46.506;6.674;2023-07-31T02:36:23;97278.91;;;15.70;67.41
71917;BME280;59793;46.506;6.674;2023-07-31T02:38:48;97281.28;;;15.83;66.82
71917;BME280;59793;46.506;6.674;2023-07-31T02:41:13;97265.28;;;15.75;67.10
71917;BME280;59793;46.506;6.674;2023-07-31T02:43:39;97256.97;;;15.81;66.96
71917;BME280;59793;46.506;6.674;2023-07-31T02:46:04;97268.00;;;15.86;66.46
71917;BME280;59793;46.506;6.674;2023-07-31T02:48:29;97259.22;;;15.75;66.63
71917;BME280;59793;46.506;6.674;2023-07-31T02:50:55;97289.72;;;15.95;66.40
71917;BME280;59793;46.506;6.674;2023-07-31T02:53:20;97288.16;;;15.87;66.66
71917;BME280;59793;46.506;6.674;2023-07-31T02:55:45;97283.97;;;15.90;66.57
71917;BME280;59793;46.506;6.674;2023-07-31T02:58:10;97274.34;;;15.67;66.97
71917;BME280;59793;46.506;6.674;2023-07-31T03:00:36;97287.78;;;15.89;66.74
71917;BME280;59793;46.506;6.674;2023-07-31T03:03:06;97322.88;;;16.12;66.99
71917;BME280;59793;46.506;6.674;2023-07-31T03:05:31;97279.41;;;15.83;67.19
71917;BME280;59793;46.506;6.674;2023-07-31T03:07:57;97304.91;;;15.95;67.14
71917;BME280;59793;46.506;6.674;2023-07-31T03:10:22;97283.53;;;15.77;67.59
71917;BME280;59793;46.506;6.674;2023-07-31T03:12:48;97284.88;;;15.60;67.96
71917;BME280;59793;46.506;6.674;2023-07-31T03:15:13;97274.22;;;15.57;67.53
71917;BME280;59793;46.506;6.674;2023-07-31T03:17:39;97294.38;;;15.61;68.16
71917;BME280;59793;46.506;6.674;2023-07-31T03:20:04;97302.03;;;15.66;68.22
71917;BME280;59793;46.506;6.674;2023-07-31T03:22:30;97283.72;;;15.58;68.36
71917;BME280;59793;46.506;6.674;2023-07-31T03:24:55;97266.25;;;15.57;67.85
71917;BME280;59793;46.506;6.674;2023-07-31T03:27:20;97286.59;;;15.83;67.71
71917;BME280;59793;46.506;6.674;2023-07-31T03:29:46;97286.22;;;15.84;67.59
71917;BME280;59793;46.506;6.674;2023-07-31T03:32:11;97267.59;;;15.81;67.67
71917;BME280;59793;46.506;6.674;2023-07-31T03:34:36;97271.84;;;15.89;67.83
71917;BME280;59793;46.506;6.674;2023-07-31T03:37:02;97268.84;;;15.94;67.45
71917;BME280;59793;46.506;6.674;2023-07-31T03:39:30;97316.16;;;16.33;67.33
71917;BME280;59793;46.506;6.674;2023-07-31T03:41:55;97297.41;;;16.11;67.71
71917;BME280;59793;46.506;6.674;2023-07-31T03:44:20;97264.63;;;15.93;67.80
71917;BME280;59793;46.506;6.674;2023-07-31T03:46:46;97307.28;;;16.11;67.45
71917;BME280;59793;46.506;6.674;2023-07-31T03:49:11;97323.34;;;16.32;67.62
71917;BME280;59793;46.506;6.674;2023-07-31T03:51:36;97299.00;;;16.19;67.57
71917;BME280;59793;46.506;6.674;2023-07-31T03:54:02;97262.84;;;16.11;67.44
71917;BME280;59793;46.506;6.674;2023-07-31T03:56:27;97294.09;;;16.32;67.55
71917;BME280;59793;46.506;6.674;2023-07-31T03:58:52;97259.84;;;16.16;67.50
71917;BME280;59793;46.506;6.674;2023-07-31T04:01:18;97303.69;;;16.47;67.49
71917;BME280;59793;46.506;6.674;2023-07-31T04:03:44;97256.41;;;16.12;67.85
71917;BME280;59793;46.506;6.674;2023-07-31T04:06:09;97272.34;;;16.09;68.52
71917;BME280;59793;46.506;6.674;2023-07-31T04:08:35;97286.00;;;16.07;68.41
71917;BME280;59793;46.506;6.674;2023-07-31T04:11:00;97300.41;;;16.02;68.95
71917;BME280;59793;46.506;6.674;2023-07-31T04:13:26;97282.81;;;15.84;69.25
71917;BME280;59793;46.506;6.674;2023-07-31T04:15:52;97310.06;;;15.73;69.84
71917;BME280;59793;46.506;6.674;2023-07-31T04:18:19;97336.34;;;15.89;69.96
71917;BME280;59793;46.506;6.674;2023-07-31T04:20:45;97329.44;;;15.77;70.50
71917;BME280;59793;46.506;6.674;2023-07-31T04:23:11;97340.91;;;15.89;70.50
71917;BME280;59793;46.506;6.674;2023-07-31T04:25:36;97274.97;;;15.53;70.47
71917;BME280;59793;46.506;6.674;2023-07-31T04:28:01;97330.44;;;15.62;71.30
71917;BME280;59793;46.506;6.674;2023-07-31T04:30:27;97364.38;;;15.80;71.68
71917;BME280;59793;46.506;6.674;2023-07-31T04:32:52;97323.69;;;15.72;71.52
71917;BME280;59793;46.506;6.674;2023-07-31T04:35:17;97314.19;;;15.67;71.50
71917;BME280;59793;46.506;6.674;2023-07-31T04:37:43;97300.13;;;15.67;71.27
71917;BME280;59793;46.506;6.674;2023-07-31T04:40:10;97322.31;;;15.89;71.09
71917;BME280;59793;46.506;6.674;2023-07-31T04:42:35;97355.56;;;16.16;71.25
71917;BME280;59793;46.506;6.674;2023-07-31T04:45:00;97359.44;;;16.30;71.00
71917;BME280;59793;46.506;6.674;2023-07-31T04:47:26;97334.72;;;16.22;70.92
71917;BME280;59793;46.506;6.674;2023-07-31T04:49:51;97299.72;;;16.16;70.47
71917;BME280;59793;46.506;6.674;2023-07-31T04:52:16;97346.34;;;16.65;70.55
71917;BME280;59793;46.506;6.674;2023-07-31T04:54:42;97313.63;;;16.58;70.47
71917;BME280;59793;46.506;6.674;2023-07-31T04:57:07;97310.63;;;16.70;70.24
71917;BME280;59793;46.506;6.674;2023-07-31T04:59:32;97306.13;;;16.78;69.89
71917;BME280;59793;46.506;6.674;2023-07-31T05:01:58;97314.19;;;17.06;70.03
71917;BME280;59793;46.506;6.674;2023-07-31T05:04:23;97326.44;;;17.22;69.68
71917;BME280;59793;46.506;6.674;2023-07-31T05:06:48;97307.00;;;17.14;69.38
71917;BME280;59793;46.506;6.674;2023-07-31T05:09:14;97300.16;;;17.20;68.98
71917;BME280;59793;46.506;6.674;2023-07-31T05:11:39;97317.69;;;17.17;69.19
71917;BME280;59793;46.506;6.674;2023-07-31T05:14:05;97327.50;;;17.03;69.60
71917;BME280;59793;46.506;6.674;2023-07-31T05:16:31;97325.06;;;16.65;69.77
71917;BME280;59793;46.506;6.674;2023-07-31T05:18:56;97345.97;;;16.67;70.19
71917;BME280;59793;46.506;6.674;2023-07-31T05:21:22;97360.81;;;16.68;70.97
71917;BME280;59793;46.506;6.674;2023-07-31T05:23:47;97296.06;;;16.42;70.87
71917;BME280;59793;46.506;6.674;2023-07-31T05:26:13;97328.88;;;16.68;71.11
71917;BME280;59793;46.506;6.674;2023-07-31T05:28:38;97354.50;;;16.98;71.32
71917;BME280;59793;46.506;6.674;2023-07-31T05:31:04;97361.00;;;17.11;70.65
71917;BME280;59793;46.506;6.674;2023-07-31T05:33:30;97353.81;;;17.18;70.68
71917;BME280;59793;46.506;6.674;2023-07-31T05:35:56;97362.56;;;17.30;70.69
71917;BME280;59793;46.506;6.674;2023-07-31T05:38:21;97329.06;;;17.18;70.52
71917;BME280;59793;46.506;6.674;2023-07-31T05:40:47;97373.25;;;17.37;70.54
71917;BME280;59793;46.506;6.674;2023-07-31T05:43:12;97337.72;;;16.86;70.24
71917;BME280;59793;46.506;6.674;2023-07-31T05:45:38;97344.84;;;16.68;71.11
71917;BME280;59793;46.506;6.674;2023-07-31T05:48:03;97352.06;;;16.71;71.08
71917;BME280;59793;46.506;6.674;2023-07-31T05:50:30;97330.47;;;16.76;70.68
71917;BME280;59793;46.506;6.674;2023-07-31T05:52:55;97340.47;;;17.08;69.99
71917;BME280;59793;46.506;6.674;2023-07-31T05:55:20;97320.72;;;17.23;69.75
71917;BME280;59793;46.506;6.674;2023-07-31T05:57:46;97368.00;;;17.83;70.23
71917;BME280;59793;46.506;6.674;2023-07-31T06:00:13;97358.88;;;18.06;69.90
71917;BME280;59793;46.506;6.674;2023-07-31T06:02:38;97342.09;;;18.20;69.63
71917;BME280;59793;46.506;6.674;2023-07-31T06:05:04;97316.56;;;18.22;69.05
71917;BME280;59793;46.506;6.674;2023-07-31T06:07:31;97347.34;;;18.70;68.17
71917;BME280;59793;46.506;6.674;2023-07-31T06:09:56;97311.88;;;18.73;67.18
71917;BME280;59793;46.506;6.674;2023-07-31T06:12:27;97332.28;;;19.19;65.18
71917;BME280;59793;46.506;6.674;2023-07-31T06:14:52;97329.06;;;19.42;63.90
71917;BME280;59793;46.506;6.674;2023-07-31T06:17:17;97282.56;;;19.32;62.27
71917;BME280;59793;46.506;6.674;2023-07-31T06:19:43;97295.41;;;19.51;61.86
71917;BME280;59793;46.506;6.674;2023-07-31T06:22:08;97329.41;;;19.99;60.70
71917;BME280;59793;46.506;6.674;2023-07-31T06:24:34;97304.91;;;20.08;60.68
71917;BME280;59793;46.506;6.674;2023-07-31T06:26:59;97277.03;;;20.05;59.31
71917;BME280;59793;46.506;6.674;2023-07-31T06:29:24;97279.03;;;19.94;59.04
71917;BME280;59793;46.506;6.674;2023-07-31T06:31:50;97310.44;;;20.24;58.21
71917;BME280;59793;46.506;6.674;2023-07-31T06:34:15;97307.41;;;20.26;57.06
71917;BME280;59793;46.506;6.674;2023-07-31T06:36:40;97299.06;;;20.17;57.35
71917;BME280;59793;46.506;6.674;2023-07-31T06:39:05;97323.72;;;20.35;57.95
71917;BME280;59793;46.506;6.674;2023-07-31T06:41:31;97293.31;;;20.22;58.01
71917;BME280;59793;46.506;6.674;2023-07-31T06:43:56;97312.50;;;20.51;58.66
71917;BME280;59793;46.506;6.674;2023-07-31T06:46:21;97309.84;;;20.51;58.54
71917;BME280;59793;46.506;6.674;2023-07-31T06:48:47;97341.16;;;20.54;58.14
71917;BME280;59793;46.506;6.674;2023-07-31T06:51:12;97316.88;;;19.93;59.73
71917;BME280;59793;46.506;6.674;2023-07-31T06:53:37;97310.28;;;19.52;61.22
71917;BME280;59793;46.506;6.674;2023-07-31T06:56:03;97333.50;;;19.70;61.32
71917;BME280;59793;46.506;6.674;2023-07-31T06:58:29;97282.25;;;19.75;60.96
71917;BME280;59793;46.506;6.674;2023-07-31T07:00:54;97328.84;;;20.22;61.82
71917;BME280;59793;46.506;6.674;2023-07-31T07:03:20;97295.66;;;20.13;60.83
71917;BME280;59793;46.506;6.674;2023-07-31T07:05:45;97313.97;;;20.56;59.59
71917;BME280;59793;46.506;6.674;2023-07-31T07:08:11;97307.41;;;20.26;58.55
71917;BME280;59793;46.506;6.674;2023-07-31T07:10:36;97276.81;;;20.27;58.65
71917;BME280;59793;46.506;6.674;2023-07-31T07:13:02;97309.34;;;20.22;58.38
71917;BME280;59793;46.506;6.674;2023-07-31T07:15:27;97286.56;;;20.06;58.66
71917;BME280;59793;46.506;6.674;2023-07-31T07:17:54;97287.72;;;20.05;59.76
71917;BME280;59793;46.506;6.674;2023-07-31T07:20:19;97304.56;;;20.02;59.78
71917;BME280;59793;46.506;6.674;2023-07-31T07:22:45;97276.59;;;20.11;59.54
71917;BME280;59793;46.506;6.674;2023-07-31T07:25:10;97310.00;;;20.71;59.42
71917;BME280;59793;46.506;6.674;2023-07-31T07:27:36;97273.13;;;20.51;58.23
71917;BME280;59793;46.506;6.674;2023-07-31T07:30:01;97289.00;;;20.28;59.31
71917;BME280;59793;46.506;6.674;2023-07-31T07:32:26;97293.38;;;20.52;58.17
71917;BME280;59793;46.506;6.674;2023-07-31T07:34:52;97263.16;;;20.18;58.88
71917;BME280;59793;46.506;6.674;2023-07-31T07:37:17;97270.41;;;20.55;57.76
71917;BME280;59793;46.506;6.674;2023-07-31T07:39:42;97261.06;;;20.33;57.65
71917;BME280;59793;46.506;6.674;2023-07-31T07:42:08;97277.81;;;20.02;58.85
71917;BME280;59793;46.506;6.674;2023-07-31T07:44:33;97284.25;;;20.46;58.21
71917;BME280;59793;46.506;6.674;2023-07-31T07:46:59;97257.31;;;20.26;58.81
71917;BME280;59793;46.506;6.674;2023-07-31T07:49:24;97287.13;;;20.28;58.72
71917;BME280;59793;46.506;6.674;2023-07-31T07:51:49;97271.44;;;20.27;58.40
71917;BME280;59793;46.506;6.674;2023-07-31T07:54:15;97286.13;;;20.12;58.32
71917;BME280;59793;46.506;6.674;2023-07-31T07:56:45;97286.13;;;20.12;59.28
71917;BME280;59793;46.506;6.674;2023-07-31T07:59:10;97295.78;;;20.74;58.11
71917;BME280;59793;46.506;6.674;2023-07-31T08:01:35;97312.84;;;21.18;55.87
71917;BME280;59793;46.506;6.674;2023-07-31T08:04:01;97318.91;;;21.22;54.61
71917;BME280;59793;46.506;6.674;2023-07-31T08:06:26;97315.19;;;20.85;54.89
71917;BME280;59793;46.506;6.674;2023-07-31T08:08:51;97314.13;;;20.75;56.29
71917;BME280;59793;46.506;6.674;2023-07-31T08:11:17;97295.63;;;20.58;55.03
71917;BME280;59793;46.506;6.674;2023-07-31T08:13:42;97308.16;;;20.64;58.00
71917;BME280;59793;46.506;6.674;2023-07-31T08:16:07;97322.47;;;20.81;57.30
71917;BME280;59793;46.506;6.674;2023-07-31T08:18:33;97304.84;;;20.84;56.93
71917;BME280;59793;46.506;6.674;2023-07-31T08:20:59;97287.59;;;20.58;56.88
71917;BME280;59793;46.506;6.674;2023-07-31T08:23:24;97309.38;;;20.56;58.12
71917;BME280;59793;46.506;6.674;2023-07-31T08:25:49;97301.59;;;20.69;56.88
71917;BME280;59793;46.506;6.674;2023-07-31T08:28:16;97320.34;;;20.99;57.01
71917;BME280;59793;46.506;6.674;2023-07-31T08:30:41;97291.44;;;20.57;56.74
71917;BME280;59793;46.506;6.674;2023-07-31T08:33:07;97307.66;;;21.31;55.25
71917;BME280;59793;46.506;6.674;2023-07-31T08:35:32;97310.31;;;21.34;56.19
71917;BME280;59793;46.506;6.674;2023-07-31T08:37:58;97286.53;;;21.09;55.97
71917;BME280;59793;46.506;6.674;2023-07-31T08:40:23;97312.38;;;21.23;54.29
71917;BME280;59793;46.506;6.674;2023-07-31T08:42:50;97279.34;;;21.30;49.05
71917;BME280;59793;46.506;6.674;2023-07-31T08:45:19;97280.66;;;21.48;50.01
71917;BME280;59793;46.506;6.674;2023-07-31T08:47:49;97291.56;;;21.34;49.97
71917;BME280;59793;46.506;6.674;2023-07-31T08:50:18;97231.03;;;21.10;53.64
71917;BME280;59793;46.506;6.674;2023-07-31T08:52:45;97293.69;;;21.46;53.62
71917;BME280;59793;46.506;6.674;2023-07-31T08:55:10;97278.88;;;21.85;51.16
71917;BME280;59793;46.506;6.674;2023-07-31T08:57:38;97266.66;;;21.84;49.16
71917;BME280;59793;46.506;6.674;2023-07-31T09:00:05;97247.28;;;21.73;50.78
71917;BME280;59793;46.506;6.674;2023-07-31T09:03:00;97283.88;;;21.83;51.33
71917;BME280;59793;46.506;6.674;2023-07-31T09:05:29;97263.09;;;22.11;51.37
71917;BME280;59793;46.506;6.674;2023-07-31T09:07:56;97282.63;;;22.55;48.84
71917;BME280;59793;46.506;6.674;2023-07-31T09:10:22;97242.34;;;22.35;49.67
71917;BME280;59793;46.506;6.674;2023-07-31T09:12:49;97262.38;;;22.30;50.74
71917;BME280;59793;46.506;6.674;2023-07-31T09:15:16;97217.38;;;22.38;48.04
71917;BME280;59793;46.506;6.674;2023-07-31T09:17:41;97249.00;;;22.47;47.06
71917;BME280;59793;46.506;6.674;2023-07-31T09:20:18;97252.00;;;22.52;49.69
71917;BME280;59793;46.506;6.674;2023-07-31T09:22:44;97243.09;;;22.35;48.59
71917;BME280;59793;46.506;6.674;2023-07-31T09:25:17;97257.97;;;22.20;50.10
71917;BME280;59793;46.506;6.674;2023-07-31T09:27:50;97234.81;;;22.66;47.10
71917;BME280;59793;46.506;6.674;2023-07-31T09:30:16;97252.91;;;22.82;45.24
71917;BME280;59793;46.506;6.674;2023-07-31T09:32:43;97229.91;;;22.45;49.48
71917;BME280;59793;46.506;6.674;2023-07-31T09:37:49;97240.22;;;22.82;43.35
71917;BME280;59793;46.506;6.674;2023-07-31T09:40:30;97198.47;;;23.14;42.50
71917;BME280;59793;46.506;6.674;2023-07-31T09:42:58;97194.94;;;23.33;39.83
71917;BME280;59793;46.506;6.674;2023-07-31T09:45:24;97192.72;;;23.61;39.22
71917;BME280;59793;46.506;6.674;2023-07-31T09:47:49;97188.59;;;23.73;42.23
71917;BME280;59793;46.506;6.674;2023-07-31T09:50:15;97199.72;;;23.88;38.91
71917;BME280;59793;46.506;6.674;2023-07-31T09:52:41;97191.63;;;23.42;40.21
71917;BME280;59793;46.506;6.674;2023-07-31T09:55:07;97193.38;;;23.65;41.34
71917;BME280;59793;46.506;6.674;2023-07-31T09:57:33;97197.66;;;23.62;41.38
71917;BME280;59793;46.506;6.674;2023-07-31T09:59:59;97167.03;;;23.44;40.96
71917;BME280;59793;46.506;6.674;2023-07-31T10:02:25;97202.28;;;24.07;39.40
71917;BME280;59793;46.506;6.674;2023-07-31T10:04:53;97170.91;;;23.10;40.93
71917;BME280;59793;46.506;6.674;2023-07-31T10:07:25;97176.03;;;23.21;42.69
71917;BME280;59793;46.506;6.674;2023-07-31T10:09:51;97194.94;;;23.17;43.01
71917;BME280;59793;46.506;6.674;2023-07-31T10:12:19;97190.88;;;23.42;41.79
71917;BME280;59793;46.506;6.674;2023-07-31T10:14:47;97164.75;;;23.42;41.84
71917;BME280;59793;46.506;6.674;2023-07-31T10:17:13;97187.69;;;23.47;41.95
71917;BME280;59793;46.506;6.674;2023-07-31T10:19:40;97163.78;;;23.65;42.45
71917;BME280;59793;46.506;6.674;2023-07-31T10:22:06;97176.91;;;23.92;41.88
71917;BME280;59793;46.506;6.674;2023-07-31T10:24:33;97169.28;;;23.91;42.09
71917;BME280;59793;46.506;6.674;2023-07-31T10:27:01;97124.94;;;23.66;41.93
71917;BME280;59793;46.506;6.674;2023-07-31T10:29:28;97119.34;;;23.60;43.16
71917;BME280;59793;46.506;6.674;2023-07-31T10:31:56;97175.84;;;23.90;42.41
71917;BME280;59793;46.506;6.674;2023-07-31T10:34:22;97103.63;;;23.30;43.38
71917;BME280;59793;46.506;6.674;2023-07-31T10:36:48;97137.16;;;23.09;43.87
71917;BME280;59793;46.506;6.674;2023-07-31T10:39:34;97143.75;;;22.88;44.21
71917;BME280;59793;46.506;6.674;2023-07-31T10:42:09;97163.28;;;23.08;45.04
71917;BME280;59793;46.506;6.674;2023-07-31T10:44:34;97156.94;;;22.82;45.61
71917;BME280;59793;46.506;6.674;2023-07-31T10:47:00;97136.72;;;22.78;46.68
71917;BME280;59793;46.506;6.674;2023-07-31T10:49:29;97145.22;;;22.93;45.13
71917;BME280;59793;46.506;6.674;2023-07-31T10:51:56;97106.47;;;22.41;44.68
71917;BME280;59793;46.506;6.674;2023-07-31T10:54:22;97136.59;;;22.65;44.87
71917;BME280;59793;46.506;6.674;2023-07-31T10:56:50;97139.66;;;22.83;44.05
71917;BME280;59793;46.506;6.674;2023-07-31T10:59:15;97146.50;;;23.04;44.14
71917;BME280;59793;46.506;6.674;2023-07-31T11:01:56;97143.06;;;23.49;43.40
71917;BME280;59793;46.506;6.674;2023-07-31T11:04:27;97142.13;;;23.56;41.85
71917;BME280;59793;46.506;6.674;2023-07-31T11:07:01;97148.00;;;23.96;42.21
71917;BME280;59793;46.506;6.674;2023-07-31T11:09:31;97149.53;;;23.81;39.91
71917;BME280;59793;46.506;6.674;2023-07-31T11:11:58;97105.59;;;24.13;38.28
71917;BME280;59793;46.506;6.674;2023-07-31T11:14:24;97148.03;;;24.22;38.72
71917;BME280;59793;46.506;6.674;2023-07-31T11:16:50;97139.00;;;24.28;40.40
71917;BME280;59793;46.506;6.674;2023-07-31T11:19:26;97132.31;;;24.20;38.83
71917;BME280;59793;46.506;6.674;2023-07-31T11:21:52;97117.56;;;24.25;38.48
71917;BME280;59793;46.506;6.674;2023-07-31T11:24:20;97144.50;;;24.25;38.61
71917;BME280;59793;46.506;6.674;2023-07-31T11:26:52;97101.34;;;24.67;36.97
71917;BME280;59793;46.506;6.674;2023-07-31T11:29:19;97122.78;;;24.70;38.30
71917;BME280;59793;46.506;6.674;2023-07-31T11:31:45;97113.84;;;24.61;37.79
71917;BME280;59793;46.506;6.674;2023-07-31T11:34:11;97118.09;;;24.32;38.40
71917;BME280;59793;46.506;6.674;2023-07-31T11:36:37;97102.69;;;24.33;39.49
71917;BME280;59793;46.506;6.674;2023-07-31T11:39:09;97143.53;;;24.95;38.69
71917;BME280;59793;46.506;6.674;2023-07-31T11:41:34;97116.94;;;24.59;37.66
71917;BME280;59793;46.506;6.674;2023-07-31T11:44:00;97140.78;;;24.61;38.70
71917;BME280;59793;46.506;6.674;2023-07-31T11:46:26;97118.84;;;24.97;38.00
71917;BME280;59793;46.506;6.674;2023-07-31T11:48:52;97137.53;;;24.91;39.09
71917;BME280;59793;46.506;6.674;2023-07-31T11:51:22;97106.16;;;24.72;38.86
71917;BME280;59793;46.506;6.674;2023-07-31T11:53:58;97121.53;;;24.97;38.35
71917;BME280;59793;46.506;6.674;2023-07-31T11:56:26;97088.56;;;24.80;40.25
71917;BME280;59793;46.506;6.674;2023-07-31T11:58:56;97099.34;;;24.93;37.76
71917;BME280;59793;46.506;6.674;2023-07-31T12:01:23;97101.28;;;24.92;37.97
71917;BME280;59793;46.506;6.674;2023-07-31T12:03:49;97097.69;;;25.08;37.66
71917;BME280;59793;46.506;6.674;2023-07-31T12:06:15;97070.16;;;24.78;38.50
71917;BME280;59793;46.506;6.674;2023-07-31T12:08:40;97083.69;;;25.13;38.55
71917;BME280;59793;46.506;6.674;2023-07-31T12:11:08;97085.91;;;25.27;37.95
71917;BME280;59793;46.506;6.674;2023-07-31T12:13:35;97059.88;;;25.34;38.36
71917;BME280;59793;46.506;6.674;2023-07-31T12:16:01;97067.22;;;25.55;38.06
71917;BME280;59793;46.506;6.674;2023-07-31T12:18:33;97070.97;;;26.02;37.74
71917;BME280;59793;46.506;6.674;2023-07-31T12:21:00;97032.50;;;25.88;35.97
71917;BME280;59793;46.506;6.674;2023-07-31T12:23:30;97037.91;;;25.88;36.31
71917;BME280;59793;46.506;6.674;2023-07-31T12:26:13;97038.38;;;25.96;36.06
71917;BME280;59793;46.506;6.674;2023-07-31T12:31:12;97013.72;;;25.85;37.03
71917;BME280;59793;46.506;6.674;2023-07-31T12:33:39;96999.75;;;26.17;35.57
71917;BME280;59793;46.506;6.674;2023-07-31T12:36:08;97022.25;;;26.14;35.66
71917;BME280;59793;46.506;6.674;2023-07-31T12:38:34;96982.09;;;26.35;35.26
71917;BME280;59793;46.506;6.674;2023-07-31T12:40:59;96974.81;;;26.81;34.59
71917;BME280;59793;46.506;6.674;2023-07-31T12:43:26;97014.75;;;26.96;33.01
71917;BME280;59793;46.506;6.674;2023-07-31T12:45:54;97016.31;;;26.38;34.07
71917;BME280;59793;46.506;6.674;2023-07-31T12:48:20;96986.31;;;26.45;34.23
71917;BME280;59793;46.506;6.674;2023-07-31T12:50:45;96968.50;;;26.57;33.25
71917;BME280;59793;46.506;6.674;2023-07-31T12:53:10;97013.28;;;27.04;33.70
71917;BME280;59793;46.506;6.674;2023-07-31T12:55:36;96987.72;;;27.05;33.13
71917;BME280;59793;46.506;6.674;2023-07-31T12:58:02;96988.47;;;26.96;33.35
71917;BME280;59793;46.506;6.674;2023-07-31T13:00:27;97002.00;;;27.05;32.33
71917;BME280;59793;46.506;6.674;2023-07-31T13:02:53;96981.13;;;26.87;31.90
71917;BME280;59793;46.506;6.674;2023-07-31T13:05:18;96982.16;;;27.27;32.73
71917;BME280;59793;46.506;6.674;2023-07-31T13:07:46;96954.84;;;26.97;31.76
71917;BME280;59793;46.506;6.674;2023-07-31T13:10:11;96973.88;;;27.39;31.29
71917;BME280;59793;46.506;6.674;2023-07-31T13:12:36;96945.81;;;26.91;30.27
71917;BME280;59793;46.506;6.674;2023-07-31T13:15:03;96956.34;;;27.07;31.50